Karaj, Iran
Current Conditions -  °F | °C
As of 9:00 AM on Saturday 29 Nov 2014 (Local Time) from OIIP Reporting Station
Clear Clear  
Wind Chill: 26°   Ceiling: Unl
Heat Index: 34°   Visibility: 4mi
Dew Point: 32°   Wind: 9mph
Humidity: 93%   Direction: 330°NNW
Pressure: 30.15"   Gusts: NA
Location:  35.8°N, 50.97°E
Report Text: OIIP 290500Z 33008KT 7000 NSC 01/00 Q1021
Loading
Personal Weather Stations






























Interactive Weather Map New forecast layout! Learn more

10-Day Weather Forecast

Advertisements
Track Severe Weather on mobile